Time;durP1;ratioP1;P1;durP2;ratioP2;P2;SDS_P1;SDS_P2;PMS_P1;PMS_P2;Temp;Humidity;BMP_temperature;BMP_pressure;BME280_temperature;BME280_humidity;BME280_pressure;Samples;Min_cycle;Max_cycle;Signal;HPM_P1;HPM_P2
2022/04/01 00:01:09;;;;;;;18.80;10.73;;;;;;;;;;6320641;28;20068;-81
2022/04/01 00:04:11;;;;;;;17.27;10.10;;;;;;;;;;6322486;28;20067;-81
2022/04/01 00:07:13;;;;;;;20.40;11.13;;;;;;;;;;6321091;28;20060;-82
2022/04/01 00:10:14;;;;;;;15.75;8.90;;;;;;;;;;6336355;28;20064;-80
2022/04/01 00:13:16;;;;;;;17.63;10.07;;;;;;;;;;6287209;28;20101;-81
2022/04/01 00:16:19;;;;;;;17.83;9.88;;;;;;;;;;6321716;28;20043;-79
2022/04/01 00:19:21;;;;;;;14.70;8.45;;;;;;;;;;6321787;28;20429;-81
2022/04/01 00:22:23;;;;;;;15.45;9.23;;;;;;;;;;6320957;28;20113;-80
2022/04/01 00:25:24;;;;;;;16.48;9.50;;;;;;;;;;6321581;28;20081;-80
2022/04/01 00:28:26;;;;;;;15.75;8.88;;;;;;;;;;6327696;28;20040;-80
2022/04/01 00:31:28;;;;;;;15.73;8.93;;;;;;;;;;6311803;28;20040;-80
2022/04/01 00:34:33;;;;;;;14.23;8.82;;;;;;;;;;6296527;28;20037;-81
2022/04/01 00:37:35;;;;;;;15.70;8.55;;;;;;;;;;6297217;28;20045;-80
2022/04/01 00:40:37;;;;;;;16.38;8.98;;;;;;;;;;6311276;28;20524;-81
2022/04/01 00:43:39;;;;;;;12.77;7.63;;;;;;;;;;6305124;28;20048;-81
2022/04/01 00:46:42;;;;;;;12.68;7.95;;;;;;;;;;6321894;28;20613;-81
2022/04/01 00:49:45;;;;;;;13.30;8.00;;;;;;;;;;6346366;27;20048;-81
2022/04/01 00:52:47;;;;;;;12.25;8.00;;;;;;;;;;6330545;28;20048;-80
2022/04/01 00:55:49;;;;;;;13.27;7.70;;;;;;;;;;6295810;28;20525;-80
2022/04/01 00:58:51;;;;;;;14.20;7.40;;;;;;;;;;6295807;28;20040;-80
2022/04/01 01:01:53;;;;;;;14.38;7.65;;;;;;;;;;6315451;28;20051;-80
2022/04/01 01:04:55;;;;;;;12.52;7.70;;;;;;;;;;6321958;28;20040;-80
2022/04/01 01:07:58;;;;;;;11.00;7.25;;;;;;;;;;6319250;28;20090;-80
2022/04/01 01:11:01;;;;;;;10.50;6.72;;;;;;;;;;6320727;28;20051;-80
2022/04/01 01:14:05;;;;;;;11.93;7.20;;;;;;;;;;6318484;28;20036;-80
2022/04/01 01:17:10;;;;;;;11.05;6.55;;;;;;;;;;6321587;28;20043;-81
2022/04/01 01:20:15;;;;;;;10.85;7.05;;;;;;;;;;6322050;28;20048;-81
2022/04/01 01:23:17;;;;;;;10.05;6.78;;;;;;;;;;6303522;28;20044;-80
2022/04/01 01:26:19;;;;;;;12.57;7.00;;;;;;;;;;6320041;28;20120;-79
2022/04/01 01:29:28;;;;;;;12.80;7.88;;;;;;;;;;6309109;28;20037;-79
2022/04/01 01:32:32;;;;;;;13.02;7.53;;;;;;;;;;6293999;28;20044;-81
2022/04/01 01:35:34;;;;;;;11.43;6.80;;;;;;;;;;6297383;28;20623;-81
2022/04/01 01:38:36;;;;;;;12.07;7.25;;;;;;;;;;6336110;28;20051;-80
2022/04/01 01:41:38;;;;;;;10.27;6.13;;;;;;;;;;6333650;28;20036;-79
2022/04/01 01:44:40;;;;;;;10.45;6.80;;;;;;;;;;6344016;28;20046;-80
2022/04/01 01:47:42;;;;;;;11.45;7.30;;;;;;;;;;6327038;28;20040;-80
2022/04/01 01:57:25;;;;;;;11.00;6.43;;;;;;;;;;6294893;28;20049;-80
2022/04/01 02:00:28;;;;;;;9.93;6.25;;;;;;;;;;6305014;28;20040;-81
2022/04/01 02:03:29;;;;;;;9.93;6.28;;;;;;;;;;6322670;28;20055;-81
2022/04/01 02:06:32;;;;;;;9.85;6.43;;;;;;;;;;6321065;28;20121;-80
2022/04/01 02:09:33;;;;;;;10.57;6.55;;;;;;;;;;6307631;28;20041;-79
2022/04/01 02:12:35;;;;;;;10.93;6.40;;;;;;;;;;6299466;28;20857;-78
2022/04/01 02:15:37;;;;;;;8.93;6.10;;;;;;;;;;6311626;28;20102;-80
2022/04/01 02:18:39;;;;;;;11.38;6.82;;;;;;;;;;6294069;28;20108;-78
2022/04/01 02:21:40;;;;;;;8.88;5.93;;;;;;;;;;6311637;28;20083;-79
2022/04/01 02:24:42;;;;;;;8.75;5.88;;;;;;;;;;6295611;28;20079;-80
2022/04/01 02:27:44;;;;;;;10.00;6.00;;;;;;;;;;6294467;28;20167;-80
2022/04/01 02:30:46;;;;;;;9.85;6.20;;;;;;;;;;6296501;28;20062;-78
2022/04/01 02:34:06;;;;;;;10.95;6.05;;;;;;;;;;6297153;28;20041;-79
2022/04/01 02:37:08;;;;;;;11.98;6.78;;;;;;;;;;6293281;28;20048;-78
2022/04/01 02:40:11;;;;;;;11.35;6.63;;;;;;;;;;6295153;28;20406;-81
2022/04/01 02:43:15;;;;;;;10.60;5.82;;;;;;;;;;6293922;28;20848;-79
2022/04/01 02:46:18;;;;;;;8.65;5.47;;;;;;;;;;6302325;28;20040;-80
2022/04/01 02:49:28;;;;;;;9.95;6.60;;;;;;;;;;6317752;28;20044;-80
2022/04/01 02:52:37;;;;;;;11.00;6.20;;;;;;;;;;6317455;28;20052;-78
2022/04/01 02:55:40;;;;;;;11.90;6.53;;;;;;;;;;6313948;28;20036;-80
2022/04/01 02:58:42;;;;;;;10.30;6.55;;;;;;;;;;6310668;28;20524;-80
2022/04/01 03:01:45;;;;;;;11.90;6.32;;;;;;;;;;6289326;28;20096;-77
2022/04/01 03:04:48;;;;;;;9.13;5.85;;;;;;;;;;6290384;28;20063;-81
2022/04/01 03:07:50;;;;;;;14.27;6.65;;;;;;;;;;6307946;28;20055;-78
2022/04/01 03:10:54;;;;;;;10.82;6.13;;;;;;;;;;6315299;28;20063;-77
2022/04/01 03:13:55;;;;;;;10.25;6.75;;;;;;;;;;6314639;28;20048;-80
2022/04/01 03:17:19;;;;;;;10.20;6.28;;;;;;;;;;6318245;28;20107;-80
2022/04/01 03:20:22;;;;;;;12.05;7.05;;;;;;;;;;6316991;28;20081;-79
2022/04/01 03:23:25;;;;;;;11.13;6.38;;;;;;;;;;6304089;28;20055;-79
2022/04/01 03:26:27;;;;;;;10.65;6.18;;;;;;;;;;6314296;28;20101;-80
2022/04/01 03:29:32;;;;;;;12.40;7.03;;;;;;;;;;6282917;28;20059;-79
2022/04/01 03:32:34;;;;;;;11.85;6.60;;;;;;;;;;6303625;28;20497;-78
2022/04/01 03:35:35;;;;;;;11.90;6.45;;;;;;;;;;6303901;28;20123;-80
2022/04/01 03:38:38;;;;;;;11.25;6.57;;;;;;;;;;6311577;28;20036;-79
2022/04/01 03:41:43;;;;;;;8.20;6.03;;;;;;;;;;6311694;28;20044;-79
2022/04/01 03:44:46;;;;;;;11.27;6.38;;;;;;;;;;6324964;28;20097;-80
2022/04/01 03:48:35;;;;;;;10.35;5.93;;;;;;;;;;6318476;28;20040;-78
2022/04/01 03:51:39;;;;;;;10.95;6.13;;;;;;;;;;6324052;28;20039;-79
2022/04/01 03:54:43;;;;;;;8.90;6.32;;;;;;;;;;6324325;28;20051;-80
2022/04/01 03:58:13;;;;;;;11.77;6.10;;;;;;;;;;6317356;28;20044;-79
2022/04/01 04:01:38;;;;;;;11.50;6.30;;;;;;;;;;6281621;28;20090;-79
2022/04/01 04:04:40;;;;;;;10.80;6.50;;;;;;;;;;6316028;28;20471;-78
2022/04/01 04:07:44;;;;;;;11.57;6.55;;;;;;;;;;6298320;28;20043;-80
2022/04/01 04:10:51;;;;;;;8.70;5.00;;;;;;;;;;6298065;28;20132;-78
2022/04/01 04:14:15;;;;;;;9.82;6.53;;;;;;;;;;6315421;28;20425;-80
2022/04/01 04:17:35;;;;;;;11.13;5.68;;;;;;;;;;6298896;28;20043;-79
2022/04/01 04:20:43;;;;;;;10.85;5.97;;;;;;;;;;6297960;28;20040;-78
2022/04/01 04:23:54;;;;;;;9.60;5.55;;;;;;;;;;6281540;28;20470;-80
2022/04/01 04:27:10;;;;;;;9.48;4.85;;;;;;;;;;6274883;28;20051;-81
2022/04/01 04:30:13;;;;;;;10.07;6.07;;;;;;;;;;6289352;28;20098;-79
2022/04/01 04:33:28;;;;;;;8.80;6.00;;;;;;;;;;6289414;28;20041;-78
2022/04/01 04:36:38;;;;;;;9.00;6.65;;;;;;;;;;6316221;28;20040;-80
2022/04/01 04:39:40;;;;;;;10.57;5.95;;;;;;;;;;6285421;28;20868;-80
2022/04/01 04:42:50;;;;;;;9.13;5.20;;;;;;;;;;6287250;28;20044;-78
2022/04/01 04:45:56;;;;;;;9.07;5.55;;;;;;;;;;6290867;28;20124;-79
2022/04/01 04:48:58;;;;;;;8.90;6.00;;;;;;;;;;6312728;28;20044;-77
2022/04/01 04:52:02;;;;;;;11.38;5.70;;;;;;;;;;6305616;28;20045;-80
2022/04/01 04:55:10;;;;;;;8.93;5.88;;;;;;;;;;6287401;28;20059;-78
2022/04/01 04:58:39;;;;;;;8.80;5.38;;;;;;;;;;6306117;28;20051;-79
2022/04/01 05:01:55;;;;;;;7.63;4.60;;;;;;;;;;6313444;28;20173;-80
2022/04/01 05:05:25;;;;;;;8.38;5.07;;;;;;;;;;6297246;28;20052;-80
2022/04/01 05:08:48;;;;;;;9.35;5.07;;;;;;;;;;6293503;28;20040;-80
2022/04/01 05:12:24;;;;;;;9.07;5.10;;;;;;;;;;6289445;28;20517;-79
2022/04/01 05:15:53;;;;;;;9.65;5.55;;;;;;;;;;6292898;28;20036;-80
2022/04/01 05:19:09;;;;;;;8.32;5.65;;;;;;;;;;6314708;28;20051;-80
2022/04/01 05:22:18;;;;;;;7.43;4.70;;;;;;;;;;6314867;28;20046;-77
2022/04/01 05:25:41;;;;;;;7.75;4.68;;;;;;;;;;6307105;28;20123;-77
2022/04/01 05:29:04;;;;;;;6.35;4.38;;;;;;;;;;6291634;28;20051;-80
2022/04/01 05:32:10;;;;;;;6.28;4.28;;;;;;;;;;6290607;28;20052;-80
2022/04/01 05:35:12;;;;;;;8.48;5.03;;;;;;;;;;6308188;28;20488;-80
2022/04/01 05:38:14;;;;;;;7.43;4.75;;;;;;;;;;6291907;28;20128;-79
2022/04/01 05:41:19;;;;;;;9.77;4.97;;;;;;;;;;6306130;28;20146;-80
2022/04/01 05:44:24;;;;;;;8.15;4.60;;;;;;;;;;6305935;28;20110;-79
2022/04/01 05:47:30;;;;;;;7.75;4.93;;;;;;;;;;6305663;28;20083;-78
2022/04/01 05:50:33;;;;;;;8.52;5.40;;;;;;;;;;6319451;28;20036;-79
2022/04/01 05:53:36;;;;;;;5.93;3.45;;;;;;;;;;6295790;28;20143;-79
2022/04/01 05:56:44;;;;;;;7.28;4.75;;;;;;;;;;6312091;28;20044;-80
2022/04/01 05:59:46;;;;;;;7.45;4.72;;;;;;;;;;6295428;28;20082;-78
2022/04/01 06:03:19;;;;;;;5.85;4.20;;;;;;;;;;6293425;28;20042;-78
2022/04/01 06:06:32;;;;;;;7.30;4.85;;;;;;;;;;6292884;28;20048;-79
2022/04/01 06:09:59;;;;;;;8.55;4.90;;;;;;;;;;6291184;28;20041;-82
2022/04/01 06:14:02;;;;;;;8.55;4.90;;;;;;;;;;6240630;28;20146;-81
2022/04/01 06:17:45;;;;;;;6.60;4.43;;;;;;;;;;6319200;28;20047;-80
2022/04/01 06:20:48;;;;;;;7.03;4.40;;;;;;;;;;6267932;28;20040;-80
2022/04/01 06:24:02;;;;;;;6.35;4.25;;;;;;;;;;6282135;28;20041;-81
2022/04/01 06:27:05;;;;;;;8.98;5.95;;;;;;;;;;6279492;28;20052;-79
2022/04/01 06:30:10;;;;;;;8.82;5.28;;;;;;;;;;6293679;28;20044;-80
2022/04/01 06:33:37;;;;;;;10.70;6.60;;;;;;;;;;6277667;28;20049;-79
2022/04/01 06:37:14;;;;;;;11.80;9.55;;;;;;;;;;6260320;28;20128;-80
2022/04/01 06:40:21;;;;;;;8.10;4.97;;;;;;;;;;6293930;28;20044;-79
2022/04/01 06:43:26;;;;;;;8.18;5.03;;;;;;;;;;6293384;28;20040;-79
2022/04/01 06:47:03;;;;;;;6.80;4.68;;;;;;;;;;6233480;28;20065;-76
2022/04/01 06:50:05;;;;;;;7.20;4.82;;;;;;;;;;6317554;28;20085;-79
2022/04/01 06:53:26;;;;;;;10.38;7.38;;;;;;;;;;6341077;27;20047;-79
2022/04/01 06:56:46;;;;;;;7.20;4.63;;;;;;;;;;6319754;28;20043;-80
2022/04/01 06:59:49;;;;;;;6.38;4.88;;;;;;;;;;6298114;28;20051;-78
2022/04/01 07:02:50;;;;;;;9.03;5.70;;;;;;;;;;6301203;28;20553;-80
2022/04/01 07:05:52;;;;;;;4.78;4.00;;;;;;;;;;6318515;28;20052;-78
2022/04/01 07:08:54;;;;;;;5.93;4.38;;;;;;;;;;6319008;28;20063;-81
2022/04/01 07:11:59;;;;;;;5.88;4.07;;;;;;;;;;6317083;28;20117;-82
2022/04/01 07:15:00;;;;;;;6.70;4.68;;;;;;;;;;6309550;28;20036;-78
2022/04/01 07:18:02;;;;;;;5.57;4.03;;;;;;;;;;6300143;28;20274;-81
2022/04/01 07:21:04;;;;;;;9.93;6.05;;;;;;;;;;6318953;28;20120;-79
2022/04/01 07:24:06;;;;;;;8.50;5.20;;;;;;;;;;6326677;28;20047;-79
2022/04/01 07:27:11;;;;;;;9.93;8.25;;;;;;;;;;6327045;28;20109;-79
2022/04/01 07:30:13;;;;;;;12.10;6.70;;;;;;;;;;6328148;28;20056;-82
2022/04/01 07:33:15;;;;;;;5.25;3.47;;;;;;;;;;6313863;28;20591;-80
2022/04/01 07:36:20;;;;;;;6.93;4.20;;;;;;;;;;6307272;28;20036;-78
2022/04/01 07:39:22;;;;;;;5.25;3.33;;;;;;;;;;6303402;28;20675;-80
2022/04/01 07:42:25;;;;;;;4.00;3.05;;;;;;;;;;6322760;28;20075;-81
2022/04/01 07:45:28;;;;;;;5.43;3.35;;;;;;;;;;6306995;27;20094;-79
2022/04/01 07:48:30;;;;;;;5.78;3.78;;;;;;;;;;6334614;28;20047;-79
2022/04/01 07:51:32;;;;;;;6.78;4.50;;;;;;;;;;6338734;28;20096;-79
2022/04/01 07:54:38;;;;;;;6.38;3.90;;;;;;;;;;6321879;28;20040;-79
2022/04/01 07:57:40;;;;;;;7.15;3.85;;;;;;;;;;6315265;28;20093;-80
2022/04/01 08:00:47;;;;;;;5.25;3.13;;;;;;;;;;6297870;28;20060;-80
2022/04/01 08:03:48;;;;;;;6.57;3.67;;;;;;;;;;6316596;28;20505;-80
2022/04/01 08:06:50;;;;;;;6.63;3.72;;;;;;;;;;6297986;28;20181;-81
2022/04/01 08:09:53;;;;;;;4.47;2.45;;;;;;;;;;6315319;28;20050;-77
2022/04/01 08:12:55;;;;;;;4.88;3.38;;;;;;;;;;6314177;28;20449;-80
2022/04/01 08:15:56;;;;;;;5.78;3.63;;;;;;;;;;6313842;28;20104;-79
2022/04/01 08:18:59;;;;;;;7.38;4.30;;;;;;;;;;6324003;28;20125;-80
2022/04/01 08:22:00;;;;;;;2.87;2.57;;;;;;;;;;6316465;28;20051;-78
2022/04/01 08:25:02;;;;;;;5.85;3.88;;;;;;;;;;6320447;28;20085;-81
2022/04/01 08:28:04;;;;;;;5.10;3.20;;;;;;;;;;6327333;28;20059;-80
2022/04/01 08:31:08;;;;;;;5.97;3.00;;;;;;;;;;6312618;28;20126;-81
2022/04/01 08:34:10;;;;;;;4.50;3.20;;;;;;;;;;6308898;28;20040;-81
2022/04/01 08:37:12;;;;;;;5.38;2.92;;;;;;;;;;6317520;28;20044;-79
2022/04/01 08:40:13;;;;;;;3.78;2.80;;;;;;;;;;6292338;28;20048;-81
2022/04/01 08:43:32;;;;;;;5.22;2.97;;;;;;;;;;6292081;28;20083;-81
2022/04/01 08:46:34;;;;;;;4.13;3.05;;;;;;;;;;6302632;28;20086;-78
2022/04/01 08:49:37;;;;;;;5.47;3.55;;;;;;;;;;6310100;28;20083;-78
2022/04/01 08:52:40;;;;;;;4.38;2.80;;;;;;;;;;6312092;28;20571;-78
2022/04/01 08:55:48;;;;;;;;;;;;;;;;;;6343784;27;20520;-81
2022/04/01 08:58:50;;;;;;;5.00;3.25;;;;;;;;;;6336512;28;19977;-80
2022/04/01 09:01:51;;;;;;;3.67;2.38;;;;;;;;;;6315473;28;20109;-79
2022/04/01 09:05:07;;;;;;;5.50;3.15;;;;;;;;;;6315761;28;20135;-80
2022/04/01 09:08:09;;;;;;;6.93;3.50;;;;;;;;;;6313255;28;20097;-80
2022/04/01 09:11:19;;;;;;;5.93;3.63;;;;;;;;;;6317898;28;20131;-79
2022/04/01 09:14:22;;;;;;;5.15;3.33;;;;;;;;;;6316832;28;20093;-80
2022/04/01 09:17:44;;;;;;;4.85;3.13;;;;;;;;;;6316981;28;20120;-80
2022/04/01 09:20:50;;;;;;;4.93;3.17;;;;;;;;;;6315290;28;20227;-80
2022/04/01 09:23:52;;;;;;;3.35;2.75;;;;;;;;;;6314951;28;20482;-79
2022/04/01 09:26:55;;;;;;;5.20;3.55;;;;;;;;;;6314373;28;20036;-80
2022/04/01 09:29:58;;;;;;;5.20;3.22;;;;;;;;;;6315171;28;20067;-78
2022/04/01 09:33:01;;;;;;;6.00;3.20;;;;;;;;;;6314908;28;20132;-80
2022/04/01 09:36:03;;;;;;;;;;;;;;;;;;6294171;28;20044;-80
2022/04/01 09:39:09;;;;;;;5.03;2.90;;;;;;;;;;6291814;28;19928;-80
2022/04/01 09:42:11;;;;;;;4.07;2.85;;;;;;;;;;6297242;28;20040;-79
2022/04/01 09:45:27;;;;;;;6.35;4.25;;;;;;;;;;6316121;28;20068;-78
2022/04/01 09:48:39;;;;;;;6.28;4.10;;;;;;;;;;6315871;28;20051;-80
2022/04/01 09:51:43;;;;;;;5.75;3.83;;;;;;;;;;6324255;28;20644;-79
2022/04/01 09:54:49;;;;;;;5.25;3.55;;;;;;;;;;6319467;28;20044;-80
2022/04/01 09:57:52;;;;;;;5.85;3.78;;;;;;;;;;6313923;28;20120;-81
2022/04/01 10:00:56;;;;;;;4.85;3.38;;;;;;;;;;6299649;28;20044;-80
2022/04/01 10:03:58;;;;;;;6.20;4.20;;;;;;;;;;6297302;28;20078;-81
2022/04/01 10:07:02;;;;;;;6.43;4.32;;;;;;;;;;6316032;28;20062;-83
2022/04/01 10:10:04;;;;;;;6.47;3.80;;;;;;;;;;6296382;28;20067;-79
2022/04/01 10:13:30;;;;;;;5.75;3.65;;;;;;;;;;6295610;28;20043;-80
2022/04/01 10:16:34;;;;;;;4.78;3.55;;;;;;;;;;6314108;28;20089;-78
2022/04/01 10:19:44;;;;;;;6.85;4.25;;;;;;;;;;6314264;28;20405;-78
2022/04/01 10:22:46;;;;;;;6.40;4.25;;;;;;;;;;6288806;28;20460;-78
2022/04/01 10:25:58;;;;;;;6.88;4.50;;;;;;;;;;6289691;28;20106;-76
2022/04/01 10:29:02;;;;;;;6.68;3.65;;;;;;;;;;6292839;28;20119;-79
2022/04/01 10:32:26;;;;;;;8.40;4.68;;;;;;;;;;6312902;28;20059;-76
2022/04/01 10:35:35;;;;;;;8.90;5.35;;;;;;;;;;6315772;28;20142;-78
2022/04/01 10:38:37;;;;;;;9.07;5.05;;;;;;;;;;6298992;28;20056;-80
2022/04/01 10:41:39;;;;;;;7.88;4.57;;;;;;;;;;6302668;28;20068;-78
2022/04/01 10:45:20;;;;;;;10.07;5.85;;;;;;;;;;6333791;28;20055;-80
2022/04/01 10:51:46;;;;;;;4.95;3.33;;;;;;;;;;6346694;28;20587;-81
2022/04/01 10:54:49;;;;;;;6.75;4.50;;;;;;;;;;6322667;28;20035;-78
2022/04/01 10:57:51;;;;;;;;;;;;;;;;;;6300786;28;20124;-80
2022/04/01 11:00:52;;;;;;;6.20;4.00;;;;;;;;;;6323926;28;20022;-80
2022/04/01 11:04:21;;;;;;;5.80;3.75;;;;;;;;;;6326090;28;20542;-79
2022/04/01 11:07:23;;;;;;;5.75;3.95;;;;;;;;;;6300238;28;20462;-80
2022/04/01 11:10:25;;;;;;;6.40;4.20;;;;;;;;;;6301482;28;20048;-80
2022/04/01 11:13:28;;;;;;;8.07;3.70;;;;;;;;;;6303208;28;20044;-78
2022/04/01 11:16:47;;;;;;;;;;;;;;;;;;6303832;28;20080;-79
2022/04/01 11:20:10;;;;;;;4.07;3.00;;;;;;;;;;6299222;28;19928;-79
2022/04/01 11:23:12;;;;;;;6.32;3.88;;;;;;;;;;6298256;28;20118;-80
2022/04/01 11:26:14;;;;;;;5.23;3.77;;;;;;;;;;6304989;28;20041;-80
2022/04/01 11:29:23;;;;;;;6.70;4.00;;;;;;;;;;6298110;28;20049;-80
2022/04/01 11:32:28;;;;;;;6.55;4.00;;;;;;;;;;6301227;28;20131;-79
2022/04/01 11:35:32;;;;;;;7.85;3.83;;;;;;;;;;6294973;28;20044;-79
2022/04/01 11:38:34;;;;;;;4.35;3.30;;;;;;;;;;6298902;28;20206;-78
2022/04/01 11:41:47;;;;;;;6.32;3.95;;;;;;;;;;6298040;28;20044;-79
2022/04/01 11:44:59;;;;;;;10.10;3.85;;;;;;;;;;6304349;28;20063;-78
2022/04/01 11:48:18;;;;;;;5.75;3.85;;;;;;;;;;6315154;28;20482;-81
2022/04/01 11:51:23;;;;;;;7.28;4.70;;;;;;;;;;6311372;28;20127;-79
2022/04/01 11:54:25;;;;;;;5.15;3.58;;;;;;;;;;6292365;28;20536;-78
2022/04/01 11:57:29;;;;;;;6.47;4.05;;;;;;;;;;6291874;28;20133;-80
2022/04/01 12:00:33;;;;;;;4.82;3.05;;;;;;;;;;6291323;28;20044;-81
2022/04/01 12:03:34;;;;;;;9.88;4.40;;;;;;;;;;6291983;28;20068;-79
2022/04/01 12:09:57;;;;;;;7.20;3.60;;;;;;;;;;6292304;28;20178;-79
2022/04/01 12:13:05;;;;;;;5.63;3.80;;;;;;;;;;6292199;28;20071;-80
2022/04/01 12:16:07;;;;;;;7.68;4.47;;;;;;;;;;6291037;28;20080;-79
2022/04/01 12:19:20;;;;;;;6.00;3.92;;;;;;;;;;6291474;28;20054;-78
2022/04/01 12:22:22;;;;;;;8.90;5.43;;;;;;;;;;6292146;28;20107;-81
2022/04/01 12:25:24;;;;;;;8.05;4.10;;;;;;;;;;6290799;28;20261;-80
2022/04/01 12:28:36;;;;;;;6.95;4.45;;;;;;;;;;6291400;28;20104;-81
2022/04/01 12:31:37;;;;;;;6.85;4.93;;;;;;;;;;6290344;28;20509;-80
2022/04/01 12:34:45;;;;;;;9.60;5.20;;;;;;;;;;6290436;28;20044;-78
2022/04/01 12:37:47;;;;;;;6.95;4.85;;;;;;;;;;6290940;28;20044;-80
2022/04/01 12:40:58;;;;;;;8.18;5.00;;;;;;;;;;6291324;28;20124;-80
2022/04/01 12:44:10;;;;;;;7.38;4.05;;;;;;;;;;6290465;28;20118;-81
2022/04/01 12:47:25;;;;;;;8.30;4.80;;;;;;;;;;6305509;28;20059;-81
2022/04/01 12:50:34;;;;;;;6.50;4.70;;;;;;;;;;6315615;28;20816;-80
2022/04/01 12:53:38;;;;;;;8.95;5.15;;;;;;;;;;6301264;28;20560;-77
2022/04/01 12:56:44;;;;;;;8.40;4.90;;;;;;;;;;6315206;28;20051;-80
2022/04/01 12:59:47;;;;;;;8.07;4.75;;;;;;;;;;6300343;28;20040;-78
2022/04/01 13:02:49;;;;;;;8.07;5.07;;;;;;;;;;6290906;28;20104;-80
2022/04/01 13:06:10;;;;;;;6.07;3.63;;;;;;;;;;6291400;28;20048;-80
2022/04/01 13:09:14;;;;;;;6.93;5.00;;;;;;;;;;6288336;28;20044;-80
2022/04/01 13:12:17;;;;;;;6.97;3.95;;;;;;;;;;6303775;28;20051;-79
2022/04/01 13:15:24;;;;;;;7.15;5.18;;;;;;;;;;6312792;28;20047;-83
2022/04/01 13:18:27;;;;;;;4.20;3.17;;;;;;;;;;6315502;28;20070;-82
2022/04/01 13:21:29;;;;;;;;;;;;;;;;;;6313539;28;20496;-83
2022/04/01 13:24:39;;;;;;;8.40;5.43;;;;;;;;;;6313349;28;19920;-81
2022/04/01 13:27:42;;;;;;;9.50;5.57;;;;;;;;;;6313774;28;20044;-81
2022/04/01 13:30:44;;;;;;;8.15;4.88;;;;;;;;;;6294306;28;20585;-82
2022/04/01 13:33:45;;;;;;;9.52;5.38;;;;;;;;;;6311287;28;20065;-81
2022/04/01 13:36:50;;;;;;;11.13;6.45;;;;;;;;;;6298557;28;20529;-81
2022/04/01 13:39:52;;;;;;;8.15;5.10;;;;;;;;;;6293578;28;20190;-80
2022/04/01 13:42:54;;;;;;;12.63;6.72;;;;;;;;;;6310930;28;20775;-81
2022/04/01 13:45:57;;;;;;;8.75;4.78;;;;;;;;;;6297381;28;20043;-78
2022/04/01 13:48:59;;;;;;;8.63;5.55;;;;;;;;;;6316947;28;20044;-79
2022/04/01 13:52:02;;;;;;;9.43;6.32;;;;;;;;;;6313600;28;20038;-79
2022/04/01 13:55:04;;;;;;;8.27;5.70;;;;;;;;;;6318764;28;20044;-80
2022/04/01 13:58:05;;;;;;;9.40;5.45;;;;;;;;;;6314119;28;20150;-80
2022/04/01 14:01:09;;;;;;;10.27;6.30;;;;;;;;;;6316277;28;20112;-79
2022/04/01 14:04:14;;;;;;;11.73;7.25;;;;;;;;;;6337800;28;20044;-80
2022/04/01 14:07:17;;;;;;;10.20;6.68;;;;;;;;;;6335797;28;20130;-79
2022/04/01 14:10:18;;;;;;;10.95;5.82;;;;;;;;;;6316759;28;20120;-77
2022/04/01 14:13:20;;;;;;;7.50;5.38;;;;;;;;;;6311191;28;20219;-79
2022/04/01 14:16:43;;;;;;;10.15;5.50;;;;;;;;;;6305992;28;20056;-81
2022/04/01 14:19:44;;;;;;;10.73;6.97;;;;;;;;;;6309062;28;20132;-79
2022/04/01 14:22:47;;;;;;;11.48;5.60;;;;;;;;;;6304768;28;20531;-80
2022/04/01 14:25:49;;;;;;;11.93;6.97;;;;;;;;;;6299235;28;20055;-80
2022/04/01 14:28:50;;;;;;;12.10;6.00;;;;;;;;;;6317585;28;20162;-80
2022/04/01 14:31:58;;;;;;;9.93;5.88;;;;;;;;;;6316173;28;20040;-80
2022/04/01 14:35:00;;;;;;;11.35;6.60;;;;;;;;;;6344659;28;20035;-78
2022/04/01 14:38:03;;;;;;;9.82;6.47;;;;;;;;;;6315412;28;20074;-80
2022/04/01 14:41:04;;;;;;;13.77;7.75;;;;;;;;;;6298378;28;20107;-79
2022/04/01 14:44:06;;;;;;;12.40;7.10;;;;;;;;;;6333304;28;20471;-80
2022/04/01 14:47:08;;;;;;;7.75;5.28;;;;;;;;;;6315203;28;20143;-78
2022/04/01 14:50:10;;;;;;;10.63;6.95;;;;;;;;;;6317619;28;20048;-79
2022/04/01 14:53:12;;;;;;;9.05;5.95;;;;;;;;;;6304290;28;20044;-80
2022/04/01 14:56:15;;;;;;;9.30;5.55;;;;;;;;;;6312396;28;20040;-80
2022/04/01 14:59:20;;;;;;;10.15;6.78;;;;;;;;;;6309489;28;20041;-80
2022/04/01 15:02:22;;;;;;;11.52;6.18;;;;;;;;;;6308079;28;20045;-79
2022/04/01 15:05:25;;;;;;;9.13;6.00;;;;;;;;;;6293427;28;20049;-81
2022/04/01 15:08:26;;;;;;;9.02;6.38;;;;;;;;;;6293189;28;20060;-78
2022/04/01 15:11:28;;;;;;;8.48;5.65;;;;;;;;;;6292955;28;20048;-82
2022/04/01 15:14:30;;;;;;;9.30;6.07;;;;;;;;;;6292902;28;20045;-82
2022/04/01 15:17:41;;;;;;;10.15;6.22;;;;;;;;;;6301930;28;20143;-83
2022/04/01 15:20:43;;;;;;;11.70;6.13;;;;;;;;;;6313926;28;20123;-79
2022/04/01 15:23:44;;;;;;;13.18;7.38;;;;;;;;;;6304027;28;20037;-79
2022/04/01 15:26:46;;;;;;;16.38;8.90;;;;;;;;;;6317340;28;20051;-79
2022/04/01 15:29:48;;;;;;;15.15;7.75;;;;;;;;;;6305021;28;20087;-80
2022/04/01 15:32:50;;;;;;;13.93;7.50;;;;;;;;;;6300390;28;20101;-79
2022/04/01 15:35:55;;;;;;;12.30;7.40;;;;;;;;;;6292155;28;20115;-79
2022/04/01 15:38:59;;;;;;;15.65;7.65;;;;;;;;;;6295909;28;20086;-79
2022/04/01 15:42:05;;;;;;;14.93;8.65;;;;;;;;;;6297247;28;20064;-80
2022/04/01 15:45:07;;;;;;;13.52;6.20;;;;;;;;;;6295977;28;20104;-80
2022/04/01 15:48:10;;;;;;;9.65;6.18;;;;;;;;;;6293539;28;20119;-80
2022/04/01 15:51:12;;;;;;;10.50;6.25;;;;;;;;;;6299000;28;20420;-80
2022/04/01 15:54:14;;;;;;;9.25;6.07;;;;;;;;;;6297011;28;20146;-78
2022/04/01 15:57:17;;;;;;;13.88;6.18;;;;;;;;;;6293652;28;20040;-81
2022/04/01 16:00:19;;;;;;;13.30;7.45;;;;;;;;;;6291455;28;20120;-80
2022/04/01 16:03:31;;;;;;;11.80;6.25;;;;;;;;;;6316126;28;20119;-80
2022/04/01 16:06:33;;;;;;;8.88;5.40;;;;;;;;;;6326098;28;20118;-78
2022/04/01 16:09:35;;;;;;;9.57;6.03;;;;;;;;;;6311267;28;20082;-79
2022/04/01 16:12:36;;;;;;;12.93;6.80;;;;;;;;;;6293281;28;20489;-79
2022/04/01 16:15:40;;;;;;;8.35;5.53;;;;;;;;;;6294195;28;20068;-78
2022/04/01 16:18:42;;;;;;;13.50;6.97;;;;;;;;;;6293846;28;20066;-78
2022/04/01 16:21:45;;;;;;;12.63;7.25;;;;;;;;;;6297624;28;20150;-80
2022/04/01 16:24:47;;;;;;;10.65;5.60;;;;;;;;;;6304354;28;20173;-80
2022/04/01 16:27:49;;;;;;;8.55;5.32;;;;;;;;;;6310702;28;20135;-80
2022/04/01 16:30:54;;;;;;;10.38;6.30;;;;;;;;;;6296696;28;20178;-79
2022/04/01 16:33:56;;;;;;;7.90;4.68;;;;;;;;;;6290234;28;20071;-78
2022/04/01 16:36:58;;;;;;;8.52;5.07;;;;;;;;;;6291651;28;20051;-80
2022/04/01 16:40:00;;;;;;;12.98;6.38;;;;;;;;;;6297706;28;20448;-81
2022/04/01 16:43:01;;;;;;;14.27;8.23;;;;;;;;;;6289404;28;20135;-79
2022/04/01 16:46:03;;;;;;;9.50;5.18;;;;;;;;;;6289474;28;20094;-77
2022/04/01 16:49:05;;;;;;;8.00;5.15;;;;;;;;;;6295772;28;20123;-80
2022/04/01 16:52:06;;;;;;;8.77;5.00;;;;;;;;;;6318145;28;20117;-78
2022/04/01 16:55:09;;;;;;;12.73;6.60;;;;;;;;;;6316906;28;20044;-79
2022/04/01 16:58:11;;;;;;;12.13;7.63;;;;;;;;;;6294801;28;20209;-79
2022/04/01 17:01:13;;;;;;;6.53;3.35;;;;;;;;;;6294394;28;20109;-79
2022/04/01 17:04:16;;;;;;;9.95;5.82;;;;;;;;;;6322752;28;20077;-79
2022/04/01 17:13:40;;;;;;;10.80;5.47;;;;;;;;;;6308505;28;20742;-82
2022/04/01 17:16:42;;;;;;;9.07;5.90;;;;;;;;;;6305240;28;20068;-80
2022/04/01 17:19:44;;;;;;;8.10;4.95;;;;;;;;;;6289713;28;20044;-80
2022/04/01 17:22:51;;;;;;;9.98;5.97;;;;;;;;;;6296965;28;20469;-81
2022/04/01 17:25:54;;;;;;;13.32;8.65;;;;;;;;;;6314577;28;20036;-81
2022/04/01 17:28:57;;;;;;;12.17;6.67;;;;;;;;;;6314500;28;20048;-80
2022/04/01 17:32:02;;;;;;;11.32;6.45;;;;;;;;;;6312770;28;20043;-80
2022/04/01 17:35:07;;;;;;;11.73;7.32;;;;;;;;;;6314765;28;20098;-79
2022/04/01 17:38:09;;;;;;;11.40;6.65;;;;;;;;;;6316031;28;20121;-81
2022/04/01 17:41:12;;;;;;;9.70;4.95;;;;;;;;;;6297479;28;20112;-79
2022/04/01 17:44:15;;;;;;;11.55;6.93;;;;;;;;;;6315135;28;20135;-79
2022/04/01 17:47:18;;;;;;;11.07;5.93;;;;;;;;;;6336688;28;20059;-79
2022/04/01 17:50:20;;;;;;;16.57;8.67;;;;;;;;;;6343690;28;20134;-79
2022/04/01 17:53:22;;;;;;;10.32;5.53;;;;;;;;;;6324757;28;20052;-80
2022/04/01 17:56:24;;;;;;;12.57;5.50;;;;;;;;;;6330625;28;20124;-81
2022/04/01 17:59:28;;;;;;;10.60;6.03;;;;;;;;;;6303484;28;20067;-78
2022/04/01 18:02:29;;;;;;;8.55;5.20;;;;;;;;;;6329555;27;20068;-77
2022/04/01 18:05:33;;;;;;;10.10;6.10;;;;;;;;;;6320137;28;20131;-76
2022/04/01 18:08:40;;;;;;;8.50;4.90;;;;;;;;;;6322914;28;20047;-80
2022/04/01 18:11:44;;;;;;;8.65;4.80;;;;;;;;;;6323372;28;20032;-79
2022/04/01 18:14:46;;;;;;;;;;;;;;;;;;6279840;28;154701;-82
2022/04/01 18:17:49;;;;;;;9.40;4.90;;;;;;;;;;6197292;28;277719;-77
2022/04/01 18:20:52;;;;;;;11.63;6.10;;;;;;;;;;6243421;28;20102;-79
2022/04/01 18:23:53;;;;;;;7.60;4.90;;;;;;;;;;6280569;28;20105;-79
2022/04/01 18:26:58;;;;;;;8.48;4.78;;;;;;;;;;6286905;28;20047;-80
2022/04/01 18:30:01;;;;;;;7.22;4.20;;;;;;;;;;6292944;28;20044;-81
2022/04/01 18:33:03;;;;;;;8.27;4.63;;;;;;;;;;6294303;28;20090;-81
2022/04/01 18:36:05;;;;;;;6.78;4.18;;;;;;;;;;6289020;28;20049;-78
2022/04/01 18:39:10;;;;;;;8.45;5.05;;;;;;;;;;6292087;27;20048;-80
2022/04/01 18:42:33;;;;;;;8.02;4.60;;;;;;;;;;6293919;28;20058;-78
2022/04/01 18:45:36;;;;;;;7.47;4.38;;;;;;;;;;6284687;28;20136;-79
2022/04/01 18:48:39;;;;;;;8.55;4.85;;;;;;;;;;6293862;28;20041;-79
2022/04/01 18:51:41;;;;;;;11.90;6.70;;;;;;;;;;6293349;28;20048;-79